sensor_id;sensor_type;location;lat;lon;timestamp;temperature;humidity
31759;DHT22;36334;51.366;0.020;2022-08-02T00:01:20;20.50;94.10
31759;DHT22;36334;51.366;0.020;2022-08-02T00:04:07;20.50;94.20
31759;DHT22;36334;51.366;0.020;2022-08-02T00:06:53;20.50;94.20
31759;DHT22;36334;51.366;0.020;2022-08-02T00:09:39;20.50;94.30
31759;DHT22;36334;51.366;0.020;2022-08-02T00:12:25;20.50;94.50
31759;DHT22;36334;51.366;0.020;2022-08-02T00:15:13;20.50;94.70
31759;DHT22;36334;51.366;0.020;2022-08-02T00:18:01;20.40;94.80
31759;DHT22;36334;51.366;0.020;2022-08-02T00:20:47;20.30;95.00
31759;DHT22;36334;51.366;0.020;2022-08-02T00:23:36;20.30;95.20
31759;DHT22;36334;51.366;0.020;2022-08-02T00:26:42;20.20;95.40
31759;DHT22;36334;51.366;0.020;2022-08-02T00:29:29;20.20;95.50
31759;DHT22;36334;51.366;0.020;2022-08-02T00:32:15;20.20;95.70
31759;DHT22;36334;51.366;0.020;2022-08-02T00:35:02;20.10;95.80
31759;DHT22;36334;51.366;0.020;2022-08-02T00:37:48;20.10;95.90
31759;DHT22;36334;51.366;0.020;2022-08-02T00:40:35;20.10;96.00
31759;DHT22;36334;51.366;0.020;2022-08-02T00:43:21;20.10;96.10
31759;DHT22;36334;51.366;0.020;2022-08-02T00:46:07;20.10;96.10
31759;DHT22;36334;51.366;0.020;2022-08-02T00:48:53;20.10;96.20
31759;DHT22;36334;51.366;0.020;2022-08-02T00:51:41;20.10;96.30
31759;DHT22;36334;51.366;0.020;2022-08-02T00:54:27;20.10;96.30
31759;DHT22;36334;51.366;0.020;2022-08-02T00:57:13;20.10;96.40
31759;DHT22;36334;51.366;0.020;2022-08-02T00:59:59;20.10;96.50
31759;DHT22;36334;51.366;0.020;2022-08-02T01:02:46;20.00;96.60
31759;DHT22;36334;51.366;0.020;2022-08-02T01:05:32;20.00;96.60
31759;DHT22;36334;51.366;0.020;2022-08-02T01:08:38;20.10;96.70
31759;DHT22;36334;51.366;0.020;2022-08-02T01:11:24;20.10;96.70
31759;DHT22;36334;51.366;0.020;2022-08-02T01:14:12;20.10;96.80
31759;DHT22;36334;51.366;0.020;2022-08-02T01:17:09;20.10;96.80
31759;DHT22;36334;51.366;0.020;2022-08-02T01:23:50;20.10;96.90
31759;DHT22;36334;51.366;0.020;2022-08-02T01:29:38;20.00;97.10
31759;DHT22;36334;51.366;0.020;2022-08-02T01:32:34;20.00;97.20
31759;DHT22;36334;51.366;0.020;2022-08-02T01:35:26;20.00;97.20
31759;DHT22;36334;51.366;0.020;2022-08-02T01:38:36;20.00;97.30
31759;DHT22;36334;51.366;0.020;2022-08-02T01:41:24;20.00;97.40
31759;DHT22;36334;51.366;0.020;2022-08-02T01:44:12;20.00;97.50
31759;DHT22;36334;51.366;0.020;2022-08-02T01:47:02;20.00;97.50
31759;DHT22;36334;51.366;0.020;2022-08-02T01:49:52;20.00;97.60
31759;DHT22;36334;51.366;0.020;2022-08-02T01:52:44;20.00;97.70
31759;DHT22;36334;51.366;0.020;2022-08-02T01:55:42;20.00;97.80
31759;DHT22;36334;51.366;0.020;2022-08-02T01:58:44;20.00;98.10
31759;DHT22;36334;51.366;0.020;2022-08-02T02:01:31;20.00;97.90
31759;DHT22;36334;51.366;0.020;2022-08-02T02:04:21;19.90;98.00
31759;DHT22;36334;51.366;0.020;2022-08-02T02:07:08;19.90;98.10
31759;DHT22;36334;51.366;0.020;2022-08-02T02:09:55;19.90;98.20
31759;DHT22;36334;51.366;0.020;2022-08-02T02:12:48;19.80;98.30
31759;DHT22;36334;51.366;0.020;2022-08-02T02:15:40;19.80;98.40
31759;DHT22;36334;51.366;0.020;2022-08-02T02:18:29;19.80;98.40
31759;DHT22;36334;51.366;0.020;2022-08-02T02:21:15;19.80;98.50
31759;DHT22;36334;51.366;0.020;2022-08-02T02:24:02;19.70;98.60
31759;DHT22;36334;51.366;0.020;2022-08-02T02:26:50;19.70;98.80
31759;DHT22;36334;51.366;0.020;2022-08-02T02:29:42;19.60;98.90
31759;DHT22;36334;51.366;0.020;2022-08-02T02:32:29;19.60;99.00
31759;DHT22;36334;51.366;0.020;2022-08-02T02:35:17;19.60;99.20
31759;DHT22;36334;51.366;0.020;2022-08-02T02:38:07;19.60;99.30
31759;DHT22;36334;51.366;0.020;2022-08-02T02:40:57;19.60;99.50
31759;DHT22;36334;51.366;0.020;2022-08-02T02:43:45;19.60;99.60
31759;DHT22;36334;51.366;0.020;2022-08-02T02:46:33;19.60;99.70
31759;DHT22;36334;51.366;0.020;2022-08-02T02:49:20;19.60;99.80
31759;DHT22;36334;51.366;0.020;2022-08-02T02:52:08;19.60;99.90
31759;DHT22;36334;51.366;0.020;2022-08-02T02:54:56;19.60;99.90
31759;DHT22;36334;51.366;0.020;2022-08-02T02:57:43;19.60;99.90
31759;DHT22;36334;51.366;0.020;2022-08-02T03:00:29;19.60;99.90
31759;DHT22;36334;51.366;0.020;2022-08-02T03:03:34;19.60;99.90
31759;DHT22;36334;51.366;0.020;2022-08-02T03:06:22;19.70;99.90
31759;DHT22;36334;51.366;0.020;2022-08-02T03:09:09;19.60;99.90
31759;DHT22;36334;51.366;0.020;2022-08-02T03:11:57;19.60;99.90
31759;DHT22;36334;51.366;0.020;2022-08-02T03:14:43;19.60;99.90
31759;DHT22;36334;51.366;0.020;2022-08-02T03:17:42;19.60;99.90
31759;DHT22;36334;51.366;0.020;2022-08-02T03:20:28;19.50;99.90
31759;DHT22;36334;51.366;0.020;2022-08-02T03:23:14;19.50;99.90
31759;DHT22;36334;51.366;0.020;2022-08-02T03:26:01;19.50;99.90
31759;DHT22;36334;51.366;0.020;2022-08-02T03:28:47;19.50;99.90
31759;DHT22;36334;51.366;0.020;2022-08-02T03:31:33;19.50;99.90
31759;DHT22;36334;51.366;0.020;2022-08-02T03:34:20;19.50;99.90
31759;DHT22;36334;51.366;0.020;2022-08-02T03:37:07;19.50;99.90
31759;DHT22;36334;51.366;0.020;2022-08-02T03:39:54;19.50;99.90
31759;DHT22;36334;51.366;0.020;2022-08-02T03:42:42;19.60;99.90
31759;DHT22;36334;51.366;0.020;2022-08-02T03:45:28;19.50;99.90
31759;DHT22;36334;51.366;0.020;2022-08-02T03:48:16;19.50;99.90
31759;DHT22;36334;51.366;0.020;2022-08-02T03:51:20;19.50;99.90
31759;DHT22;36334;51.366;0.020;2022-08-02T03:54:06;19.50;99.90
31759;DHT22;36334;51.366;0.020;2022-08-02T03:56:52;19.40;99.90
31759;DHT22;36334;51.366;0.020;2022-08-02T03:59:43;19.40;99.90
31759;DHT22;36334;51.366;0.020;2022-08-02T04:02:29;19.40;99.90
31759;DHT22;36334;51.366;0.020;2022-08-02T04:05:16;19.40;99.90
31759;DHT22;36334;51.366;0.020;2022-08-02T04:08:02;19.30;99.90
31759;DHT22;36334;51.366;0.020;2022-08-02T04:11:08;19.30;99.90
31759;DHT22;36334;51.366;0.020;2022-08-02T04:14:13;19.30;99.90
31759;DHT22;36334;51.366;0.020;2022-08-02T04:17:03;19.20;99.90
31759;DHT22;36334;51.366;0.020;2022-08-02T04:19:54;19.20;99.90
31759;DHT22;36334;51.366;0.020;2022-08-02T04:25:49;19.20;99.90
31759;DHT22;36334;51.366;0.020;2022-08-02T04:28:36;19.20;99.90
31759;DHT22;36334;51.366;0.020;2022-08-02T04:31:23;19.20;99.90
31759;DHT22;36334;51.366;0.020;2022-08-02T04:34:09;19.20;99.90
31759;DHT22;36334;51.366;0.020;2022-08-02T04:37:00;19.20;99.90
31759;DHT22;36334;51.366;0.020;2022-08-02T04:39:46;19.20;99.90
31759;DHT22;36334;51.366;0.020;2022-08-02T04:42:36;19.20;99.90
31759;DHT22;36334;51.366;0.020;2022-08-02T04:45:24;19.20;99.90
31759;DHT22;36334;51.366;0.020;2022-08-02T04:48:13;19.20;99.90
31759;DHT22;36334;51.366;0.020;2022-08-02T04:50:59;19.20;99.90
31759;DHT22;36334;51.366;0.020;2022-08-02T04:53:46;19.20;99.90
31759;DHT22;36334;51.366;0.020;2022-08-02T04:56:38;19.20;99.90
31759;DHT22;36334;51.366;0.020;2022-08-02T04:59:25;19.20;99.90
31759;DHT22;36334;51.366;0.020;2022-08-02T05:02:11;19.20;99.90
31759;DHT22;36334;51.366;0.020;2022-08-02T05:04:58;19.20;99.90
31759;DHT22;36334;51.366;0.020;2022-08-02T05:07:44;19.20;99.90
31759;DHT22;36334;51.366;0.020;2022-08-02T05:10:30;19.30;99.90
31759;DHT22;36334;51.366;0.020;2022-08-02T05:13:17;19.30;99.90
31759;DHT22;36334;51.366;0.020;2022-08-02T05:16:04;19.30;99.90
31759;DHT22;36334;51.366;0.020;2022-08-02T05:18:50;19.30;99.90
31759;DHT22;36334;51.366;0.020;2022-08-02T05:21:38;19.30;99.90
31759;DHT22;36334;51.366;0.020;2022-08-02T05:24:25;19.40;99.90
31759;DHT22;36334;51.366;0.020;2022-08-02T05:27:11;19.40;99.90
31759;DHT22;36334;51.366;0.020;2022-08-02T05:30:07;19.40;99.90
31759;DHT22;36334;51.366;0.020;2022-08-02T05:32:53;19.50;99.90
31759;DHT22;36334;51.366;0.020;2022-08-02T05:35:39;19.50;99.90
31759;DHT22;36334;51.366;0.020;2022-08-02T05:38:26;19.50;99.90
31759;DHT22;36334;51.366;0.020;2022-08-02T05:41:17;19.50;99.90
31759;DHT22;36334;51.366;0.020;2022-08-02T05:44:04;19.60;99.90
31759;DHT22;36334;51.366;0.020;2022-08-02T05:46:50;19.60;99.90
31759;DHT22;36334;51.366;0.020;2022-08-02T05:49:38;19.60;99.90
31759;DHT22;36334;51.366;0.020;2022-08-02T05:55:34;19.70;99.90
31759;DHT22;36334;51.366;0.020;2022-08-02T05:58:30;19.70;99.90
31759;DHT22;36334;51.366;0.020;2022-08-02T06:01:27;19.70;99.90
31759;DHT22;36334;51.366;0.020;2022-08-02T06:04:18;19.70;99.90
31759;DHT22;36334;51.366;0.020;2022-08-02T06:07:08;19.70;99.90
31759;DHT22;36334;51.366;0.020;2022-08-02T06:09:55;19.80;99.90
31759;DHT22;36334;51.366;0.020;2022-08-02T06:15:50;20.00;99.90
31759;DHT22;36334;51.366;0.020;2022-08-02T06:18:45;20.10;99.90
31759;DHT22;36334;51.366;0.020;2022-08-02T06:21:32;20.20;99.90
31759;DHT22;36334;51.366;0.020;2022-08-02T06:24:49;20.40;99.90
31759;DHT22;36334;51.366;0.020;2022-08-02T06:27:38;20.50;99.90
31759;DHT22;36334;51.366;0.020;2022-08-02T06:30:25;20.60;99.90
31759;DHT22;36334;51.366;0.020;2022-08-02T06:33:12;20.70;99.90
31759;DHT22;36334;51.366;0.020;2022-08-02T06:36:25;20.70;99.90
31759;DHT22;36334;51.366;0.020;2022-08-02T06:39:29;20.70;99.90
31759;DHT22;36334;51.366;0.020;2022-08-02T06:42:24;20.80;99.90
31759;DHT22;36334;51.366;0.020;2022-08-02T06:45:15;20.80;99.90
31759;DHT22;36334;51.366;0.020;2022-08-02T06:48:02;20.80;99.90
31759;DHT22;36334;51.366;0.020;2022-08-02T06:50:48;20.90;99.90
31759;DHT22;36334;51.366;0.020;2022-08-02T06:53:34;21.00;99.90
31759;DHT22;36334;51.366;0.020;2022-08-02T06:56:21;21.00;99.90
31759;DHT22;36334;51.366;0.020;2022-08-02T06:59:07;21.10;99.90
31759;DHT22;36334;51.366;0.020;2022-08-02T07:01:53;21.20;99.90
31759;DHT22;36334;51.366;0.020;2022-08-02T07:04:40;21.20;99.90
31759;DHT22;36334;51.366;0.020;2022-08-02T07:07:26;21.20;99.90
31759;DHT22;36334;51.366;0.020;2022-08-02T07:10:13;21.30;99.90
31759;DHT22;36334;51.366;0.020;2022-08-02T07:12:59;21.40;99.90
31759;DHT22;36334;51.366;0.020;2022-08-02T07:15:46;21.40;99.90
31759;DHT22;36334;51.366;0.020;2022-08-02T07:18:34;21.50;99.90
31759;DHT22;36334;51.366;0.020;2022-08-02T07:21:20;21.50;99.90
31759;DHT22;36334;51.366;0.020;2022-08-02T07:24:27;21.50;99.90
31759;DHT22;36334;51.366;0.020;2022-08-02T07:27:12;21.60;99.90
31759;DHT22;36334;51.366;0.020;2022-08-02T07:29:59;21.60;99.90
31759;DHT22;36334;51.366;0.020;2022-08-02T07:32:45;21.70;99.90
31759;DHT22;36334;51.366;0.020;2022-08-02T07:35:31;21.80;99.90
31759;DHT22;36334;51.366;0.020;2022-08-02T07:38:23;21.90;99.90
31759;DHT22;36334;51.366;0.020;2022-08-02T07:41:10;22.00;99.90
31759;DHT22;36334;51.366;0.020;2022-08-02T07:43:57;22.00;99.90
31759;DHT22;36334;51.366;0.020;2022-08-02T07:46:44;22.10;99.90
31759;DHT22;36334;51.366;0.020;2022-08-02T07:49:30;22.10;99.90
31759;DHT22;36334;51.366;0.020;2022-08-02T07:52:22;22.20;99.90
31759;DHT22;36334;51.366;0.020;2022-08-02T07:55:09;22.30;99.90
31759;DHT22;36334;51.366;0.020;2022-08-02T07:57:59;22.40;99.90
31759;DHT22;36334;51.366;0.020;2022-08-02T08:00:45;22.40;99.90
31759;DHT22;36334;51.366;0.020;2022-08-02T08:03:34;22.50;99.90
31759;DHT22;36334;51.366;0.020;2022-08-02T08:06:21;22.50;99.90
31759;DHT22;36334;51.366;0.020;2022-08-02T08:09:13;22.60;99.90
31759;DHT22;36334;51.366;0.020;2022-08-02T08:12:00;22.70;99.90
31759;DHT22;36334;51.366;0.020;2022-08-02T08:14:46;22.70;99.90
31759;DHT22;36334;51.366;0.020;2022-08-02T08:17:33;22.80;99.90
31759;DHT22;36334;51.366;0.020;2022-08-02T08:20:20;22.80;99.90
31759;DHT22;36334;51.366;0.020;2022-08-02T08:23:07;22.90;99.90
31759;DHT22;36334;51.366;0.020;2022-08-02T08:25:54;23.00;99.90
31759;DHT22;36334;51.366;0.020;2022-08-02T08:28:40;23.10;99.90
31759;DHT22;36334;51.366;0.020;2022-08-02T08:31:26;23.10;99.90
31759;DHT22;36334;51.366;0.020;2022-08-02T08:34:13;23.20;99.90
31759;DHT22;36334;51.366;0.020;2022-08-02T08:36:59;23.20;99.90
31759;DHT22;36334;51.366;0.020;2022-08-02T08:39:47;23.30;99.90
31759;DHT22;36334;51.366;0.020;2022-08-02T08:42:43;23.30;99.90
31759;DHT22;36334;51.366;0.020;2022-08-02T08:45:29;23.30;99.90
31759;DHT22;36334;51.366;0.020;2022-08-02T08:48:17;23.40;99.90
31759;DHT22;36334;51.366;0.020;2022-08-02T08:51:20;23.40;99.90
31759;DHT22;36334;51.366;0.020;2022-08-02T08:54:09;23.40;99.90
31759;DHT22;36334;51.366;0.020;2022-08-02T08:56:58;23.60;99.90
31759;DHT22;36334;51.366;0.020;2022-08-02T08:59:45;23.70;99.90
31759;DHT22;36334;51.366;0.020;2022-08-02T09:02:35;23.80;99.90
31759;DHT22;36334;51.366;0.020;2022-08-02T09:05:22;23.80;99.90
31759;DHT22;36334;51.366;0.020;2022-08-02T09:08:08;23.80;99.90
31759;DHT22;36334;51.366;0.020;2022-08-02T09:11:14;23.90;99.90
31759;DHT22;36334;51.366;0.020;2022-08-02T09:14:05;24.00;99.90
31759;DHT22;36334;51.366;0.020;2022-08-02T09:16:52;24.10;99.90
31759;DHT22;36334;51.366;0.020;2022-08-02T09:19:39;24.20;99.90
31759;DHT22;36334;51.366;0.020;2022-08-02T09:22:31;24.20;99.90
31759;DHT22;36334;51.366;0.020;2022-08-02T09:25:17;24.20;99.90
31759;DHT22;36334;51.366;0.020;2022-08-02T09:28:04;24.20;99.90
31759;DHT22;36334;51.366;0.020;2022-08-02T09:30:50;24.20;99.90
31759;DHT22;36334;51.366;0.020;2022-08-02T09:33:39;24.30;99.90
31759;DHT22;36334;51.366;0.020;2022-08-02T09:36:35;24.30;99.80
31759;DHT22;36334;51.366;0.020;2022-08-02T09:39:22;24.40;99.90
31759;DHT22;36334;51.366;0.020;2022-08-02T09:42:08;24.50;99.70
31759;DHT22;36334;51.366;0.020;2022-08-02T09:45:00;24.50;99.50
31759;DHT22;36334;51.366;0.020;2022-08-02T09:47:48;24.50;99.30
31759;DHT22;36334;51.366;0.020;2022-08-02T09:50:39;24.40;99.30
31759;DHT22;36334;51.366;0.020;2022-08-02T09:53:26;24.30;99.30
31759;DHT22;36334;51.366;0.020;2022-08-02T09:56:12;24.20;99.40
31759;DHT22;36334;51.366;0.020;2022-08-02T09:59:21;24.10;99.40
31759;DHT22;36334;51.366;0.020;2022-08-02T10:02:10;24.10;99.60
31759;DHT22;36334;51.366;0.020;2022-08-02T10:05:02;24.10;99.70
31759;DHT22;36334;51.366;0.020;2022-08-02T10:07:48;24.10;99.60
31759;DHT22;36334;51.366;0.020;2022-08-02T10:10:34;24.10;99.70
31759;DHT22;36334;51.366;0.020;2022-08-02T10:13:21;24.10;99.70
31759;DHT22;36334;51.366;0.020;2022-08-02T10:16:07;24.20;99.90
31759;DHT22;36334;51.366;0.020;2022-08-02T10:18:54;24.30;99.70
31759;DHT22;36334;51.366;0.020;2022-08-02T10:21:57;24.40;99.70
31759;DHT22;36334;51.366;0.020;2022-08-02T10:24:45;24.50;99.40
31759;DHT22;36334;51.366;0.020;2022-08-02T10:27:35;24.70;99.20
31759;DHT22;36334;51.366;0.020;2022-08-02T10:30:44;24.70;99.30
31759;DHT22;36334;51.366;0.020;2022-08-02T10:33:34;24.80;99.20
31759;DHT22;36334;51.366;0.020;2022-08-02T10:36:22;24.80;99.00
31759;DHT22;36334;51.366;0.020;2022-08-02T10:39:12;24.90;99.00
31759;DHT22;36334;51.366;0.020;2022-08-02T10:41:58;25.00;98.70
31759;DHT22;36334;51.366;0.020;2022-08-02T10:44:44;25.10;98.70
31759;DHT22;36334;51.366;0.020;2022-08-02T10:47:29;25.20;98.60
31759;DHT22;36334;51.366;0.020;2022-08-02T10:50:16;25.30;98.30
31759;DHT22;36334;51.366;0.020;2022-08-02T10:53:28;25.40;98.20
31759;DHT22;36334;51.366;0.020;2022-08-02T10:56:15;25.50;97.90
31759;DHT22;36334;51.366;0.020;2022-08-02T10:59:23;25.50;97.80
31759;DHT22;36334;51.366;0.020;2022-08-02T11:02:32;25.40;97.70
31759;DHT22;36334;51.366;0.020;2022-08-02T11:05:30;25.40;97.70
31759;DHT22;36334;51.366;0.020;2022-08-02T11:08:29;25.50;97.80
31759;DHT22;36334;51.366;0.020;2022-08-02T11:11:18;25.60;97.50
31759;DHT22;36334;51.366;0.020;2022-08-02T11:14:25;25.60;97.50
31759;DHT22;36334;51.366;0.020;2022-08-02T11:17:16;25.70;97.50
31759;DHT22;36334;51.366;0.020;2022-08-02T11:23:33;25.70;97.20
31759;DHT22;36334;51.366;0.020;2022-08-02T11:29:19;25.60;97.20
31759;DHT22;36334;51.366;0.020;2022-08-02T11:32:22;25.50;97.10
31759;DHT22;36334;51.366;0.020;2022-08-02T11:35:15;25.50;97.10
31759;DHT22;36334;51.366;0.020;2022-08-02T11:38:16;25.50;97.10
31759;DHT22;36334;51.366;0.020;2022-08-02T11:41:06;25.60;97.00
31759;DHT22;36334;51.366;0.020;2022-08-02T11:43:55;25.70;96.80
31759;DHT22;36334;51.366;0.020;2022-08-02T11:46:42;25.70;96.50
31759;DHT22;36334;51.366;0.020;2022-08-02T11:49:29;25.70;96.50
31759;DHT22;36334;51.366;0.020;2022-08-02T11:52:16;25.70;96.60
31759;DHT22;36334;51.366;0.020;2022-08-02T11:55:06;25.50;96.70
31759;DHT22;36334;51.366;0.020;2022-08-02T11:58:00;25.30;96.80
31759;DHT22;36334;51.366;0.020;2022-08-02T12:00:52;25.20;97.10
31759;DHT22;36334;51.366;0.020;2022-08-02T12:03:39;25.10;97.30
31759;DHT22;36334;51.366;0.020;2022-08-02T12:06:30;25.10;97.30
31759;DHT22;36334;51.366;0.020;2022-08-02T12:09:20;25.10;97.30
31759;DHT22;36334;51.366;0.020;2022-08-02T12:12:07;25.10;97.40
31759;DHT22;36334;51.366;0.020;2022-08-02T12:14:53;25.20;97.40
31759;DHT22;36334;51.366;0.020;2022-08-02T12:17:39;25.30;97.30
31759;DHT22;36334;51.366;0.020;2022-08-02T12:20:44;25.50;97.30
31759;DHT22;36334;51.366;0.020;2022-08-02T12:23:31;25.70;97.10
31759;DHT22;36334;51.366;0.020;2022-08-02T12:26:17;25.90;96.90
31759;DHT22;36334;51.366;0.020;2022-08-02T12:29:03;25.90;96.90
31759;DHT22;36334;51.366;0.020;2022-08-02T12:31:52;26.10;96.70
31759;DHT22;36334;51.366;0.020;2022-08-02T12:34:42;26.20;96.60
31759;DHT22;36334;51.366;0.020;2022-08-02T12:37:29;26.30;96.60
31759;DHT22;36334;51.366;0.020;2022-08-02T12:43:20;26.30;96.30
31759;DHT22;36334;51.366;0.020;2022-08-02T12:46:17;26.20;96.20
31759;DHT22;36334;51.366;0.020;2022-08-02T12:49:15;26.20;96.30
31759;DHT22;36334;51.366;0.020;2022-08-02T12:52:21;26.10;96.40
31759;DHT22;36334;51.366;0.020;2022-08-02T12:55:23;26.20;96.20
31759;DHT22;36334;51.366;0.020;2022-08-02T12:58:48;26.20;96.10
31759;DHT22;36334;51.366;0.020;2022-08-02T13:01:35;26.20;95.90
31759;DHT22;36334;51.366;0.020;2022-08-02T13:04:22;26.10;96.00
31759;DHT22;36334;51.366;0.020;2022-08-02T13:07:10;26.10;96.00
31759;DHT22;36334;51.366;0.020;2022-08-02T13:10:00;26.10;95.90
31759;DHT22;36334;51.366;0.020;2022-08-02T13:12:50;26.00;95.80
31759;DHT22;36334;51.366;0.020;2022-08-02T13:15:38;25.80;95.90
31759;DHT22;36334;51.366;0.020;2022-08-02T13:18:35;25.70;96.10
31759;DHT22;36334;51.366;0.020;2022-08-02T13:21:21;25.70;96.20
31759;DHT22;36334;51.366;0.020;2022-08-02T13:24:26;25.60;96.30
31759;DHT22;36334;51.366;0.020;2022-08-02T13:27:32;25.60;96.40
31759;DHT22;36334;51.366;0.020;2022-08-02T13:30:22;25.70;96.50
31759;DHT22;36334;51.366;0.020;2022-08-02T13:33:08;25.80;96.50
31759;DHT22;36334;51.366;0.020;2022-08-02T13:35:54;25.90;96.40
31759;DHT22;36334;51.366;0.020;2022-08-02T13:38:40;26.00;96.30
31759;DHT22;36334;51.366;0.020;2022-08-02T13:41:27;26.10;96.30
31759;DHT22;36334;51.366;0.020;2022-08-02T13:44:13;26.20;96.30
31759;DHT22;36334;51.366;0.020;2022-08-02T13:47:00;26.50;96.00
31759;DHT22;36334;51.366;0.020;2022-08-02T13:49:46;26.60;95.90
31759;DHT22;36334;51.366;0.020;2022-08-02T13:52:36;26.80;95.60
31759;DHT22;36334;51.366;0.020;2022-08-02T13:55:23;26.90;95.30
31759;DHT22;36334;51.366;0.020;2022-08-02T13:58:10;27.00;95.30
31759;DHT22;36334;51.366;0.020;2022-08-02T14:00:56;27.00;95.00
31759;DHT22;36334;51.366;0.020;2022-08-02T14:03:43;27.10;94.90
31759;DHT22;36334;51.366;0.020;2022-08-02T14:06:49;27.30;94.70
31759;DHT22;36334;51.366;0.020;2022-08-02T14:09:36;27.50;94.50
31759;DHT22;36334;51.366;0.020;2022-08-02T14:12:25;27.70;94.20
31759;DHT22;36334;51.366;0.020;2022-08-02T14:15:11;27.90;94.10
31759;DHT22;36334;51.366;0.020;2022-08-02T14:17:58;28.10;93.70
31759;DHT22;36334;51.366;0.020;2022-08-02T14:20:44;28.10;93.50
31759;DHT22;36334;51.366;0.020;2022-08-02T14:23:31;28.10;93.40
31759;DHT22;36334;51.366;0.020;2022-08-02T14:26:36;28.00;93.40
31759;DHT22;36334;51.366;0.020;2022-08-02T14:29:23;28.10;93.50
31759;DHT22;36334;51.366;0.020;2022-08-02T14:32:09;28.20;93.30
31759;DHT22;36334;51.366;0.020;2022-08-02T14:34:56;28.30;93.30
31759;DHT22;36334;51.366;0.020;2022-08-02T14:37:42;28.30;93.20
31759;DHT22;36334;51.366;0.020;2022-08-02T14:40:28;28.30;93.10
31759;DHT22;36334;51.366;0.020;2022-08-02T14:43:17;28.30;93.10
31759;DHT22;36334;51.366;0.020;2022-08-02T14:46:21;28.30;93.00
31759;DHT22;36334;51.366;0.020;2022-08-02T14:49:08;28.20;93.10
31759;DHT22;36334;51.366;0.020;2022-08-02T14:51:56;28.10;93.00
31759;DHT22;36334;51.366;0.020;2022-08-02T14:54:43;28.00;93.20
31759;DHT22;36334;51.366;0.020;2022-08-02T14:57:32;27.80;93.10
31759;DHT22;36334;51.366;0.020;2022-08-02T15:00:18;27.70;93.40
31759;DHT22;36334;51.366;0.020;2022-08-02T15:03:04;27.70;93.40
31759;DHT22;36334;51.366;0.020;2022-08-02T15:05:53;27.90;93.40
31759;DHT22;36334;51.366;0.020;2022-08-02T15:08:40;28.00;93.10
31759;DHT22;36334;51.366;0.020;2022-08-02T15:11:27;28.00;93.40
31759;DHT22;36334;51.366;0.020;2022-08-02T15:14:17;28.10;93.20
31759;DHT22;36334;51.366;0.020;2022-08-02T15:17:11;28.10;93.10
31759;DHT22;36334;51.366;0.020;2022-08-02T15:19:58;28.10;93.10
31759;DHT22;36334;51.366;0.020;2022-08-02T15:23:05;28.10;93.10
31759;DHT22;36334;51.366;0.020;2022-08-02T15:25:54;28.20;93.00
31759;DHT22;36334;51.366;0.020;2022-08-02T15:28:43;28.20;92.90
31759;DHT22;36334;51.366;0.020;2022-08-02T15:31:30;28.40;92.90
31759;DHT22;36334;51.366;0.020;2022-08-02T15:34:18;28.80;92.60
31759;DHT22;36334;51.366;0.020;2022-08-02T15:37:05;29.30;92.20
31759;DHT22;36334;51.366;0.020;2022-08-02T15:39:52;30.10;92.00
31759;DHT22;36334;51.366;0.020;2022-08-02T15:42:38;31.40;91.10
31759;DHT22;36334;51.366;0.020;2022-08-02T15:45:24;32.40;90.00
31759;DHT22;36334;51.366;0.020;2022-08-02T15:48:12;33.00;87.80
31759;DHT22;36334;51.366;0.020;2022-08-02T15:50:58;33.30;86.00
31759;DHT22;36334;51.366;0.020;2022-08-02T15:53:44;33.60;85.60
31759;DHT22;36334;51.366;0.020;2022-08-02T15:56:34;34.50;84.50
31759;DHT22;36334;51.366;0.020;2022-08-02T15:59:20;35.10;82.50
31759;DHT22;36334;51.366;0.020;2022-08-02T16:02:06;34.80;81.20
31759;DHT22;36334;51.366;0.020;2022-08-02T16:04:58;34.60;80.50
31759;DHT22;36334;51.366;0.020;2022-08-02T16:07:45;34.10;80.80
31759;DHT22;36334;51.366;0.020;2022-08-02T16:10:31;34.10;81.20
31759;DHT22;36334;51.366;0.020;2022-08-02T16:13:18;34.50;80.80
31759;DHT22;36334;51.366;0.020;2022-08-02T16:16:38;34.20;80.20
31759;DHT22;36334;51.366;0.020;2022-08-02T16:19:25;33.20;80.70
31759;DHT22;36334;51.366;0.020;2022-08-02T16:22:31;32.40;81.80
31759;DHT22;36334;51.366;0.020;2022-08-02T16:25:18;32.30;82.80
31759;DHT22;36334;51.366;0.020;2022-08-02T16:28:04;33.00;82.50
31759;DHT22;36334;51.366;0.020;2022-08-02T16:30:52;33.50;81.60
31759;DHT22;36334;51.366;0.020;2022-08-02T16:33:57;33.40;81.00
31759;DHT22;36334;51.366;0.020;2022-08-02T16:36:43;32.60;81.30
31759;DHT22;36334;51.366;0.020;2022-08-02T16:39:30;31.80;82.30
31759;DHT22;36334;51.366;0.020;2022-08-02T16:42:16;30.80;83.80
31759;DHT22;36334;51.366;0.020;2022-08-02T16:45:12;29.90;85.40
31759;DHT22;36334;51.366;0.020;2022-08-02T16:47:58;29.40;87.10
31759;DHT22;36334;51.366;0.020;2022-08-02T16:50:50;30.00;88.10
31759;DHT22;36334;51.366;0.020;2022-08-02T16:53:37;31.20;86.60
31759;DHT22;36334;51.366;0.020;2022-08-02T16:56:46;32.70;85.00
31759;DHT22;36334;51.366;0.020;2022-08-02T16:59:34;34.20;82.30
31759;DHT22;36334;51.366;0.020;2022-08-02T17:02:28;34.10;80.40
31759;DHT22;36334;51.366;0.020;2022-08-02T17:05:14;33.90;80.10
31759;DHT22;36334;51.366;0.020;2022-08-02T17:08:01;33.80;80.10
31759;DHT22;36334;51.366;0.020;2022-08-02T17:11:07;33.80;79.90
31759;DHT22;36334;51.366;0.020;2022-08-02T17:13:53;34.30;79.50
31759;DHT22;36334;51.366;0.020;2022-08-02T17:16:39;34.70;78.50
31759;DHT22;36334;51.366;0.020;2022-08-02T17:19:30;35.00;78.10
31759;DHT22;36334;51.366;0.020;2022-08-02T17:22:23;35.30;77.40
31759;DHT22;36334;51.366;0.020;2022-08-02T17:25:11;35.60;76.50
31759;DHT22;36334;51.366;0.020;2022-08-02T17:28:01;35.20;76.00
31759;DHT22;36334;51.366;0.020;2022-08-02T17:30:49;34.10;76.70
31759;DHT22;36334;51.366;0.020;2022-08-02T17:33:36;32.80;78.30
31759;DHT22;36334;51.366;0.020;2022-08-02T17:36:26;31.70;80.20
31759;DHT22;36334;51.366;0.020;2022-08-02T17:39:12;31.40;81.50
31759;DHT22;36334;51.366;0.020;2022-08-02T17:41:59;31.80;81.60
31759;DHT22;36334;51.366;0.020;2022-08-02T17:44:45;32.30;81.10
31759;DHT22;36334;51.366;0.020;2022-08-02T17:47:34;32.80;80.50
31759;DHT22;36334;51.366;0.020;2022-08-02T17:50:27;33.20;79.80
31759;DHT22;36334;51.366;0.020;2022-08-02T17:53:13;33.30;79.30
31759;DHT22;36334;51.366;0.020;2022-08-02T17:55:59;33.00;79.10
31759;DHT22;36334;51.366;0.020;2022-08-02T17:58:46;32.40;79.50
31759;DHT22;36334;51.366;0.020;2022-08-02T18:01:40;31.60;80.60
31759;DHT22;36334;51.366;0.020;2022-08-02T18:04:38;30.70;81.80
31759;DHT22;36334;51.366;0.020;2022-08-02T18:07:25;29.90;83.30
31759;DHT22;36334;51.366;0.020;2022-08-02T18:10:31;29.00;84.70
31759;DHT22;36334;51.366;0.020;2022-08-02T18:13:17;28.20;86.20
31759;DHT22;36334;51.366;0.020;2022-08-02T18:16:04;27.60;87.60
31759;DHT22;36334;51.366;0.020;2022-08-02T18:19:07;27.10;88.90